createdAt,value
2024-01-14T00:04:53.673Z,92.4
2024-01-14T00:14:53.646Z,92.4
2024-01-14T00:24:53.634Z,92.4
2024-01-14T00:34:53.579Z,92.6
2024-01-14T00:44:53.549Z,92.4
2024-01-14T00:54:53.508Z,92.4
2024-01-14T01:04:53.482Z,92.2
2024-01-14T01:14:53.470Z,92.2
2024-01-14T01:24:53.517Z,92.4
2024-01-14T01:34:53.431Z,92.4
2024-01-14T01:44:53.412Z,92.4
2024-01-14T01:54:53.466Z,92.2
2024-01-14T02:04:53.343Z,92.2
2024-01-14T02:14:53.304Z,92.2
2024-01-14T02:24:53.265Z,92.2
2024-01-14T02:34:53.209Z,91.8
2024-01-14T02:44:53.197Z,91.6
2024-01-14T02:54:53.202Z,91.6
2024-01-14T03:04:53.193Z,91.6
2024-01-14T03:14:53.149Z,91.4
2024-01-14T03:24:53.162Z,91.2
2024-01-14T03:34:53.080Z,91.2
2024-01-14T03:44:53.056Z,91
2024-01-14T03:54:53.018Z,90.6
2024-01-14T04:04:52.985Z,90.8
2024-01-14T04:14:52.955Z,90.6
2024-01-14T04:24:52.928Z,90.6
2024-01-14T04:34:52.907Z,90.6
2024-01-14T04:44:52.871Z,90.8
2024-01-14T04:54:52.834Z,90.6
2024-01-14T05:04:52.812Z,90.6
2024-01-14T05:14:52.781Z,90.4
2024-01-14T05:24:52.915Z,90.6
2024-01-14T05:34:52.806Z,90.6
2024-01-14T05:44:52.810Z,90.4
2024-01-14T05:54:52.657Z,90.4
2024-01-14T06:04:52.638Z,90.4
2024-01-14T06:14:52.608Z,90.4
2024-01-14T06:24:52.604Z,90.4
2024-01-14T06:34:52.589Z,90.6
2024-01-14T06:44:52.545Z,90.6
2024-01-14T06:54:52.504Z,90.6
2024-01-14T07:04:52.466Z,90.6
2024-01-14T07:14:52.562Z,90.8
2024-01-14T07:24:52.489Z,90.8
2024-01-14T07:34:52.483Z,90.6
2024-01-14T07:44:52.370Z,90.4
2024-01-14T07:54:52.326Z,90.2
2024-01-14T08:04:52.302Z,90
2024-01-14T08:14:52.282Z,90.2
2024-01-14T08:24:52.260Z,90
2024-01-14T08:34:52.225Z,90.2
2024-01-14T08:44:52.186Z,90
2024-01-14T08:54:52.249Z,91
2024-01-14T09:04:52.129Z,92.4
2024-01-14T09:14:52.116Z,93.2
2024-01-14T09:24:52.131Z,93.2
2024-01-14T09:34:52.105Z,92.8
2024-01-14T09:44:52.051Z,92.2
2024-01-14T09:54:52.055Z,92.2
2024-01-14T10:04:52.014Z,92
2024-01-14T10:14:51.956Z,91.2
2024-01-14T10:24:51.979Z,90.8
2024-01-14T10:34:51.893Z,91
2024-01-14T10:44:51.848Z,90.6
2024-01-14T10:54:51.902Z,90.8
2024-01-14T11:04:51.814Z,90.6
2024-01-14T11:14:51.790Z,90.4
2024-01-14T11:24:51.782Z,90.4
2024-01-14T11:34:51.714Z,90.2
2024-01-14T11:44:51.879Z,90
2024-01-14T11:54:51.727Z,90.2
2024-01-14T12:04:51.651Z,90.2
2024-01-14T12:14:51.839Z,90
2024-01-14T12:24:51.581Z,90.2
2024-01-14T12:34:51.648Z,90.8
2024-01-14T12:44:51.703Z,91
2024-01-14T12:54:51.816Z,91.2
2024-01-14T13:04:51.682Z,91.4
2024-01-14T13:14:51.798Z,91.2
2024-01-14T13:24:51.588Z,91.2
2024-01-14T13:34:51.709Z,91.2
2024-01-14T13:44:51.653Z,90.8
2024-01-14T13:54:51.444Z,90
2024-01-14T14:04:51.299Z,89.4
2024-01-14T14:14:51.326Z,89.2
2024-01-14T14:24:51.254Z,89.2
2024-01-14T14:34:51.594Z,91
2024-01-14T14:44:51.420Z,92.6
2024-01-14T14:54:51.169Z,92.8
2024-01-14T15:04:51.415Z,92.6
2024-01-14T15:14:51.399Z,92.6
2024-01-14T15:24:51.422Z,92
2024-01-14T15:34:51.128Z,91.2
2024-01-14T15:44:51.038Z,90.6
2024-01-14T15:54:50.992Z,89.6
2024-01-14T16:04:50.978Z,89.6
2024-01-14T16:14:50.956Z,89.8
2024-01-14T16:24:50.919Z,89.8
2024-01-14T16:34:50.884Z,89.6
2024-01-14T16:44:50.852Z,89.6
2024-01-14T16:54:50.850Z,89.6
2024-01-14T17:04:50.808Z,89.6
2024-01-14T17:14:50.772Z,89.6
2024-01-14T17:24:50.768Z,89.2
2024-01-14T17:34:50.731Z,89.2
2024-01-14T17:44:50.700Z,89
2024-01-14T17:54:50.706Z,88.6
2024-01-14T18:04:50.639Z,88.6
2024-01-14T18:14:50.610Z,88.6
2024-01-14T18:24:50.591Z,88.4
2024-01-14T18:34:50.557Z,88.2
2024-01-14T18:44:50.534Z,88.4
2024-01-14T18:54:50.490Z,88.4
2024-01-14T19:04:50.462Z,88.4
2024-01-14T19:14:50.449Z,88.2
2024-01-14T19:24:50.429Z,88.2
2024-01-14T19:34:50.394Z,88.6
2024-01-14T19:44:50.417Z,89
2024-01-14T19:54:50.398Z,89.2
2024-01-14T20:04:50.323Z,90
2024-01-14T20:14:50.362Z,91
2024-01-14T20:24:50.250Z,91.2
2024-01-14T20:34:50.216Z,91.4
2024-01-14T20:44:50.189Z,91.4
2024-01-14T20:54:50.177Z,91.4
2024-01-14T21:04:50.147Z,91.2
2024-01-14T21:14:50.118Z,91.2
2024-01-14T21:24:50.082Z,91.8
2024-01-14T21:34:50.147Z,92
2024-01-14T21:44:50.026Z,92
2024-01-14T21:54:50.016Z,92
2024-01-14T22:04:49.976Z,92
2024-01-14T22:14:49.945Z,91.8
2024-01-14T22:24:49.914Z,91.8
2024-01-14T22:34:49.940Z,92.2
2024-01-14T22:44:49.873Z,92.2
2024-01-14T22:54:49.936Z,92.4
2024-01-14T23:04:49.828Z,92.4
2024-01-14T23:24:49.770Z,91.8
2024-01-14T23:34:49.725Z,91.6
2024-01-14T23:44:49.700Z,91.2
2024-01-14T23:54:49.672Z,91
